createdAt,value
2022-10-13T00:00:49.573Z,19.40
2022-10-13T00:04:05.776Z,19.70
2022-10-13T00:07:08.619Z,19.30
2022-10-13T00:10:11.572Z,19.40
2022-10-13T00:13:15.030Z,20.40
2022-10-13T00:16:20.651Z,18.70
2022-10-13T00:19:23.422Z,19.60
2022-10-13T00:22:27.712Z,20.00
2022-10-13T00:25:30.543Z,18.20
2022-10-13T00:28:33.438Z,17.80
2022-10-13T00:31:36.338Z,17.30
2022-10-13T00:34:40.392Z,17.10
2022-10-13T00:37:43.209Z,16.20
2022-10-13T00:40:56.365Z,17.20
2022-10-13T00:44:26.874Z,16.60
2022-10-13T00:47:40.718Z,16.10
2022-10-13T00:50:44.189Z,16.10
2022-10-13T00:53:48.471Z,16.30
2022-10-13T00:56:53.536Z,16.90
2022-10-13T00:59:57.035Z,17.00
2022-10-13T01:03:01.018Z,16.20
2022-10-13T01:06:05.781Z,16.00
2022-10-13T01:09:08.626Z,16.40
2022-10-13T01:12:20.187Z,16.20
2022-10-13T01:15:39.702Z,16.50
2022-10-13T01:18:59.876Z,17.10
2022-10-13T01:22:21.420Z,16.90
2022-10-13T01:25:30.393Z,17.10
2022-10-13T01:28:53.409Z,17.40
2022-10-13T01:32:06.245Z,16.60
2022-10-13T01:35:36.002Z,17.40
2022-10-13T01:38:49.803Z,17.10
2022-10-13T01:42:00.867Z,16.70
2022-10-13T01:45:04.494Z,17.30
2022-10-13T01:48:08.897Z,15.90
2022-10-13T01:51:20.739Z,17.50
2022-10-13T01:54:27.132Z,17.70
2022-10-13T01:57:38.241Z,16.80
2022-10-13T02:00:48.824Z,17.10
2022-10-13T02:04:10.553Z,17.40
2022-10-13T02:07:19.858Z,16.10
2022-10-13T02:10:31.045Z,16.80
2022-10-13T02:13:36.833Z,17.30
2022-10-13T02:16:45.439Z,16.50
2022-10-13T02:19:48.571Z,17.00
2022-10-13T02:22:57.939Z,17.20
2022-10-13T02:26:00.999Z,17.10
2022-10-13T02:29:12.475Z,17.10
2022-10-13T02:32:15.372Z,16.10
2022-10-13T02:35:18.558Z,14.40
2022-10-13T02:38:21.545Z,16.00
2022-10-13T02:41:24.704Z,15.40
2022-10-13T02:44:27.586Z,16.80
2022-10-13T02:47:30.538Z,15.90
2022-10-13T02:50:33.405Z,16.60
2022-10-13T02:53:36.230Z,15.20
2022-10-13T02:56:39.098Z,16.80
2022-10-13T02:59:41.918Z,15.60
2022-10-13T03:02:44.710Z,16.10
2022-10-13T03:05:47.587Z,16.20
2022-10-13T03:08:50.718Z,16.10
2022-10-13T03:11:53.818Z,15.30
2022-10-13T03:14:57.504Z,15.30
2022-10-13T03:18:00.329Z,14.70
2022-10-13T03:21:06.490Z,15.20
2022-10-13T03:24:09.500Z,15.50
2022-10-13T03:27:12.533Z,14.90
2022-10-13T03:30:15.414Z,14.00
2022-10-13T03:33:18.297Z,14.60
2022-10-13T03:36:21.122Z,15.50
2022-10-13T03:39:25.397Z,14.90
2022-10-13T03:42:28.221Z,15.00
2022-10-13T03:45:31.436Z,15.60
2022-10-13T03:48:36.170Z,14.20
2022-10-13T03:51:39.819Z,15.30
2022-10-13T03:54:42.619Z,15.10
2022-10-13T03:57:45.480Z,15.10
2022-10-13T04:00:48.440Z,16.80
2022-10-13T04:03:54.316Z,15.60
2022-10-13T04:06:57.587Z,15.50
2022-10-13T04:10:00.434Z,15.30
2022-10-13T04:13:05.672Z,15.50
2022-10-13T04:16:18.938Z,15.10
2022-10-13T04:19:21.887Z,15.80
2022-10-13T04:22:24.694Z,16.80
2022-10-13T04:25:27.604Z,17.00
2022-10-13T04:28:30.636Z,17.00
2022-10-13T04:31:34.370Z,17.30
2022-10-13T04:34:37.407Z,16.70
2022-10-13T04:37:44.974Z,15.50
2022-10-13T04:40:48.324Z,17.30
2022-10-13T04:43:52.276Z,17.10
2022-10-13T04:46:55.486Z,16.40
2022-10-13T04:49:58.275Z,14.40
2022-10-13T04:53:01.146Z,16.90
2022-10-13T04:56:09.671Z,17.10
2022-10-13T04:59:12.641Z,17.70
2022-10-13T05:02:15.540Z,17.60
2022-10-13T05:05:18.444Z,18.40
2022-10-13T05:08:21.718Z,18.30
2022-10-13T05:11:26.631Z,17.50
2022-10-13T05:14:31.110Z,17.30
2022-10-13T05:17:36.288Z,17.80
2022-10-13T05:20:44.019Z,15.50
2022-10-13T05:23:47.123Z,18.10
2022-10-13T05:26:49.924Z,16.50
2022-10-13T05:29:52.782Z,16.70
2022-10-13T05:32:55.713Z,17.30
2022-10-13T05:36:15.078Z,16.90
2022-10-13T05:39:18.004Z,17.50
2022-10-13T05:42:21.191Z,17.70
2022-10-13T05:45:24.485Z,17.80
2022-10-13T05:48:27.979Z,17.40
2022-10-13T05:51:37.196Z,16.90
2022-10-13T05:54:46.200Z,18.40
2022-10-13T05:57:52.268Z,18.80
2022-10-13T06:00:55.798Z,18.60
2022-10-13T06:04:03.996Z,19.00
2022-10-13T06:07:08.407Z,18.30
2022-10-13T06:10:11.931Z,19.10
2022-10-13T06:13:14.831Z,19.90
2022-10-13T06:16:17.908Z,19.50
2022-10-13T06:19:21.835Z,20.10
2022-10-13T06:22:24.709Z,20.10
2022-10-13T06:25:27.557Z,20.20
2022-10-13T06:28:30.400Z,19.00
2022-10-13T06:31:33.269Z,18.90
2022-10-13T06:34:36.055Z,18.90
2022-10-13T06:37:39.198Z,19.10
2022-10-13T06:40:46.172Z,19.30
2022-10-13T06:43:49.626Z,20.30
2022-10-13T06:46:53.054Z,20.80
2022-10-13T06:49:56.379Z,21.80
2022-10-13T06:52:59.439Z,21.70
2022-10-13T06:56:04.570Z,23.00
2022-10-13T06:59:07.446Z,21.80
2022-10-13T07:02:11.422Z,19.90
2022-10-13T07:05:14.370Z,19.80
2022-10-13T07:08:17.888Z,20.30
2022-10-13T07:11:20.890Z,22.00
2022-10-13T07:14:27.532Z,22.00
2022-10-13T07:17:30.314Z,23.50
2022-10-13T07:20:33.758Z,22.60
2022-10-13T07:23:36.560Z,22.00
2022-10-13T07:26:39.330Z,25.10
2022-10-13T07:29:42.240Z,20.30
2022-10-13T07:32:45.131Z,20.20
2022-10-13T07:35:47.925Z,19.90
2022-10-13T07:38:50.833Z,19.50
2022-10-13T07:41:53.741Z,20.00
2022-10-13T07:44:56.621Z,19.20
2022-10-13T07:48:01.851Z,19.00
2022-10-13T07:51:07.542Z,18.30
2022-10-13T07:54:11.030Z,19.10
2022-10-13T07:57:14.101Z,19.70
2022-10-13T08:00:17.527Z,20.40
2022-10-13T08:03:20.377Z,21.00
2022-10-13T08:06:23.305Z,20.70
2022-10-13T08:09:29.991Z,21.10
2022-10-13T08:12:35.475Z,23.20
2022-10-13T08:15:42.868Z,22.20
2022-10-13T08:18:46.419Z,24.50
2022-10-13T08:21:58.317Z,25.40
2022-10-13T08:25:02.507Z,23.20
2022-10-13T08:28:22.982Z,23.10
2022-10-13T08:31:29.064Z,22.10
2022-10-13T08:34:34.031Z,22.50
2022-10-13T08:37:36.982Z,22.70
2022-10-13T08:40:39.939Z,23.60
2022-10-13T08:44:24.759Z,22.80
2022-10-13T08:47:48.306Z,24.00
2022-10-13T08:50:54.971Z,24.40
2022-10-13T08:53:59.220Z,25.70
2022-10-13T08:57:02.072Z,25.60
2022-10-13T09:00:07.257Z,27.10
2022-10-13T09:03:29.043Z,26.80
2022-10-13T09:06:36.827Z,26.40
2022-10-13T09:09:40.099Z,26.00
2022-10-13T09:12:42.987Z,24.50
2022-10-13T09:15:50.318Z,25.00
2022-10-13T09:18:53.116Z,24.90
2022-10-13T09:22:13.127Z,26.30
2022-10-13T09:25:20.056Z,24.50
2022-10-13T09:28:27.669Z,21.60
2022-10-13T09:31:32.312Z,22.10
2022-10-13T09:34:35.116Z,25.00
2022-10-13T09:37:41.627Z,24.30
2022-10-13T09:40:58.036Z,23.10
2022-10-13T09:44:11.745Z,23.30
2022-10-13T09:47:21.674Z,22.80
2022-10-13T09:50:27.813Z,21.70
2022-10-13T09:53:37.786Z,19.10
2022-10-13T09:56:49.347Z,17.60
2022-10-13T09:59:58.934Z,16.10
2022-10-13T10:03:10.712Z,17.10
2022-10-13T10:06:15.891Z,16.00
2022-10-13T10:09:41.590Z,16.80
2022-10-13T10:12:45.309Z,14.60
2022-10-13T10:16:20.714Z,17.10
2022-10-13T10:19:55.387Z,15.50
2022-10-13T10:23:11.234Z,14.90
2022-10-13T10:26:20.750Z,14.10
2022-10-13T10:29:39.054Z,15.20
2022-10-13T10:33:07.901Z,15.90
2022-10-13T10:36:19.913Z,15.40
2022-10-13T10:39:41.378Z,16.10
2022-10-13T10:42:58.994Z,16.30
2022-10-13T10:46:01.856Z,15.40
2022-10-13T10:49:35.173Z,15.60
2022-10-13T10:53:00.891Z,13.80
2022-10-13T10:56:07.789Z,13.20
2022-10-13T10:59:37.270Z,14.40
2022-10-13T11:02:55.308Z,14.00
2022-10-13T11:06:20.863Z,13.40
2022-10-13T11:09:42.745Z,12.50
2022-10-13T11:13:26.927Z,11.50
2022-10-13T11:16:40.103Z,11.00
2022-10-13T11:19:49.682Z,11.20
2022-10-13T11:22:58.522Z,11.30
2022-10-13T11:26:20.709Z,10.80
2022-10-13T11:29:51.523Z,9.80
2022-10-13T11:32:57.129Z,8.30
2022-10-13T11:36:27.728Z,7.20
2022-10-13T11:39:59.576Z,9.40
2022-10-13T11:43:37.348Z,8.50
2022-10-13T11:46:52.423Z,9.80
2022-10-13T11:50:04.285Z,9.60
2022-10-13T11:53:11.956Z,10.00
2022-10-13T11:56:31.871Z,8.60
2022-10-13T11:59:37.674Z,7.70
2022-10-13T12:02:49.111Z,9.00
2022-10-13T12:05:53.580Z,8.10
2022-10-13T12:08:56.434Z,8.90
2022-10-13T12:12:13.213Z,8.20
2022-10-13T12:15:31.196Z,7.20
2022-10-13T12:18:38.374Z,6.70
2022-10-13T12:21:56.329Z,5.80
2022-10-13T12:25:05.356Z,7.60
2022-10-13T12:28:19.250Z,7.10
2022-10-13T12:31:27.773Z,7.00
2022-10-13T12:34:34.526Z,6.50
2022-10-13T12:37:37.452Z,6.60
2022-10-13T12:40:40.599Z,6.30
2022-10-13T12:43:44.691Z,6.70
2022-10-13T12:46:53.476Z,6.90
2022-10-13T12:50:23.676Z,6.10
2022-10-13T12:53:28.829Z,5.90
2022-10-13T12:56:32.505Z,6.90
2022-10-13T12:59:43.049Z,5.80
2022-10-13T13:03:04.030Z,6.80
2022-10-13T13:06:13.435Z,6.80
2022-10-13T13:09:22.228Z,7.70
2022-10-13T13:12:28.028Z,7.90
2022-10-13T13:15:36.379Z,8.80
2022-10-13T13:18:41.794Z,8.10
2022-10-13T13:21:44.722Z,9.20
2022-10-13T13:24:49.444Z,10.50
2022-10-13T13:27:53.088Z,9.70
2022-10-13T13:30:55.856Z,10.50
2022-10-13T13:33:58.581Z,10.60
2022-10-13T13:37:02.638Z,11.40
2022-10-13T13:40:07.392Z,10.10
2022-10-13T13:43:10.125Z,10.80
2022-10-13T13:46:17.232Z,10.90
2022-10-13T13:49:19.987Z,11.50
2022-10-13T13:52:25.340Z,12.20
2022-10-13T13:55:29.665Z,11.90
2022-10-13T13:58:32.429Z,10.80
2022-10-13T14:01:35.794Z,11.20
2022-10-13T14:04:38.562Z,10.80
2022-10-13T14:07:41.440Z,11.60
2022-10-13T14:10:44.297Z,12.50
2022-10-13T14:13:48.085Z,11.50
2022-10-13T14:16:52.719Z,11.40
2022-10-13T14:19:55.608Z,11.90
2022-10-13T14:22:58.370Z,13.00
2022-10-13T14:26:05.914Z,14.00
2022-10-13T14:29:08.731Z,12.60
2022-10-13T14:32:12.176Z,13.40
2022-10-13T14:35:15.025Z,12.40
2022-10-13T14:38:18.250Z,12.20
2022-10-13T14:41:24.419Z,11.80
2022-10-13T14:44:27.217Z,13.40
2022-10-13T14:47:29.949Z,12.70
2022-10-13T14:50:32.765Z,13.40
2022-10-13T14:53:41.429Z,12.60
2022-10-13T14:56:44.915Z,13.50
2022-10-13T14:59:47.753Z,13.60
2022-10-13T15:02:50.528Z,13.80
2022-10-13T15:05:54.187Z,14.90
2022-10-13T15:08:59.461Z,14.60
2022-10-13T15:12:02.764Z,15.20
2022-10-13T15:15:05.991Z,15.80
2022-10-13T15:18:08.727Z,15.50
2022-10-13T15:21:12.148Z,15.90
2022-10-13T15:24:14.916Z,16.30
2022-10-13T15:27:18.281Z,18.50
2022-10-13T15:30:21.049Z,17.80
2022-10-13T15:33:23.900Z,17.70
2022-10-13T15:36:26.724Z,18.80
2022-10-13T15:39:29.589Z,20.00
2022-10-13T15:42:32.692Z,21.80
2022-10-13T15:45:36.038Z,21.90
2022-10-13T15:48:39.312Z,21.60
2022-10-13T15:51:42.173Z,22.70
2022-10-13T15:54:45.072Z,24.00
2022-10-13T15:57:47.946Z,23.80
2022-10-13T16:00:50.736Z,23.90
2022-10-13T16:03:55.245Z,25.90
2022-10-13T16:06:57.993Z,26.50
2022-10-13T16:10:00.990Z,22.50
2022-10-13T16:13:03.917Z,24.40
2022-10-13T16:16:07.604Z,24.40
2022-10-13T16:19:10.482Z,22.70
2022-10-13T16:22:13.567Z,22.70
2022-10-13T16:25:16.795Z,22.40
2022-10-13T16:28:19.718Z,22.90
2022-10-13T16:31:22.769Z,23.40
2022-10-13T16:34:26.108Z,22.40
2022-10-13T16:37:28.926Z,24.30
2022-10-13T16:40:32.477Z,28.40
2022-10-13T16:43:35.760Z,26.50
2022-10-13T16:46:38.814Z,28.80
2022-10-13T16:49:41.992Z,29.50
2022-10-13T16:52:47.256Z,29.90
2022-10-13T16:55:50.262Z,29.90
2022-10-13T16:58:55.679Z,30.60
2022-10-13T17:01:59.443Z,31.30
2022-10-13T17:05:02.382Z,32.70
2022-10-13T17:08:06.464Z,32.20
2022-10-13T17:11:15.706Z,33.50
2022-10-13T17:14:18.648Z,34.40
2022-10-13T17:17:21.732Z,34.10
2022-10-13T17:20:24.880Z,34.50
2022-10-13T17:23:29.262Z,35.10
2022-10-13T17:26:32.489Z,34.20
2022-10-13T17:29:35.276Z,34.80
2022-10-13T17:32:38.913Z,35.70
2022-10-13T17:35:41.757Z,37.20
2022-10-13T17:38:45.255Z,36.90
2022-10-13T17:41:48.133Z,36.80
2022-10-13T17:44:51.059Z,38.00
2022-10-13T17:47:53.943Z,39.30
2022-10-13T17:51:02.732Z,39.80
2022-10-13T17:54:08.233Z,40.90
2022-10-13T17:57:14.510Z,46.80
2022-10-13T18:00:18.095Z,49.30
2022-10-13T18:03:21.552Z,48.10
2022-10-13T18:06:24.485Z,49.00
2022-10-13T18:09:27.326Z,49.00
2022-10-13T18:12:30.117Z,50.60
2022-10-13T18:15:36.876Z,53.20
2022-10-13T18:18:39.876Z,54.70
2022-10-13T18:21:43.046Z,52.60
2022-10-13T18:24:46.347Z,51.30
2022-10-13T18:27:49.205Z,49.90
2022-10-13T18:30:52.051Z,49.50
2022-10-13T18:34:00.678Z,47.10
2022-10-13T18:37:05.656Z,45.20
2022-10-13T18:40:09.003Z,47.00
2022-10-13T18:43:11.848Z,51.90
2022-10-13T18:46:14.836Z,48.10
2022-10-13T18:49:20.608Z,49.00
2022-10-13T18:52:23.507Z,49.00
2022-10-13T18:55:26.404Z,51.40
2022-10-13T18:58:30.549Z,52.10
2022-10-13T19:01:35.139Z,56.80
2022-10-13T19:04:38.312Z,57.70
2022-10-13T19:07:41.345Z,53.50
2022-10-13T19:10:44.180Z,48.80
2022-10-13T19:13:48.369Z,48.40
2022-10-13T19:16:51.312Z,48.90
2022-10-13T19:19:56.352Z,52.20
2022-10-13T19:22:59.222Z,55.70
2022-10-13T19:26:15.254Z,54.50
2022-10-13T19:29:18.417Z,63.10
2022-10-13T19:32:21.357Z,58.80
2022-10-13T19:35:24.300Z,54.50
2022-10-13T19:38:27.361Z,50.10
2022-10-13T19:41:32.349Z,44.20
2022-10-13T19:44:35.376Z,40.10
2022-10-13T19:47:38.373Z,26.80
2022-10-13T19:50:44.138Z,26.80
2022-10-13T19:53:49.484Z,30.80
2022-10-13T19:56:52.534Z,28.70
2022-10-13T19:59:55.444Z,31.40
2022-10-13T20:02:58.362Z,30.40
2022-10-13T20:06:05.845Z,29.10
2022-10-13T20:09:14.705Z,28.70
2022-10-13T20:12:17.598Z,27.60
2022-10-13T20:15:20.623Z,26.90
2022-10-13T20:18:24.040Z,27.80
2022-10-13T20:21:27.749Z,28.50
2022-10-13T20:24:30.659Z,29.30
2022-10-13T20:27:34.037Z,28.60
2022-10-13T20:30:39.468Z,27.60
2022-10-13T20:33:43.401Z,27.70
2022-10-13T20:36:46.314Z,26.80
2022-10-13T20:39:49.199Z,24.90
2022-10-13T20:42:52.716Z,25.90
2022-10-13T20:46:01.254Z,24.60
2022-10-13T20:49:13.073Z,24.10
2022-10-13T20:52:16.571Z,23.80
2022-10-13T20:55:22.366Z,23.10
2022-10-13T20:58:29.879Z,23.00
2022-10-13T21:01:34.681Z,23.00
2022-10-13T21:04:37.620Z,23.60
2022-10-13T21:07:40.932Z,21.80
2022-10-13T21:10:45.265Z,22.20
2022-10-13T21:13:49.653Z,21.40
2022-10-13T21:16:54.226Z,21.60
2022-10-13T21:19:58.309Z,21.50
2022-10-13T21:23:02.218Z,20.50
2022-10-13T21:26:06.877Z,21.10
2022-10-13T21:29:10.072Z,19.20
2022-10-13T21:32:13.034Z,19.90
2022-10-13T21:35:16.597Z,21.20
2022-10-13T21:38:19.520Z,21.60
2022-10-13T21:41:23.562Z,21.30
2022-10-13T21:44:27.932Z,21.80
2022-10-13T21:47:32.500Z,22.80
2022-10-13T21:50:35.612Z,24.40
2022-10-13T21:53:38.445Z,22.50
2022-10-13T21:56:42.428Z,23.70
2022-10-13T21:59:45.668Z,24.60
2022-10-13T22:02:48.533Z,23.00
2022-10-13T22:05:56.408Z,24.90
2022-10-13T22:09:02.460Z,24.80
2022-10-13T22:12:05.690Z,27.80
2022-10-13T22:15:08.902Z,26.00
2022-10-13T22:18:11.768Z,26.70
2022-10-13T22:21:20.750Z,26.30
2022-10-13T22:24:23.616Z,26.20
2022-10-13T22:27:26.501Z,28.40
2022-10-13T22:30:29.389Z,28.00
2022-10-13T22:33:33.728Z,28.30
2022-10-13T22:36:39.920Z,26.90
2022-10-13T22:39:45.314Z,28.70
2022-10-13T22:42:49.440Z,28.50
2022-10-13T22:45:52.428Z,27.80
2022-10-13T22:48:56.369Z,28.30
2022-10-13T22:51:59.588Z,28.80
2022-10-13T22:55:02.446Z,27.60
2022-10-13T22:58:08.380Z,27.10
2022-10-13T23:01:15.170Z,26.80
2022-10-13T23:04:17.994Z,26.40
2022-10-13T23:07:21.425Z,28.30
2022-10-13T23:10:24.598Z,28.00
2022-10-13T23:13:27.462Z,29.00
2022-10-13T23:16:33.092Z,27.50
2022-10-13T23:19:36.528Z,28.80
2022-10-13T23:22:39.613Z,30.60
2022-10-13T23:25:42.491Z,29.30
2022-10-13T23:28:45.405Z,29.80
2022-10-13T23:31:48.349Z,31.70
2022-10-13T23:34:51.245Z,32.70
2022-10-13T23:37:55.851Z,32.10
2022-10-13T23:41:08.200Z,33.80
2022-10-13T23:44:12.370Z,35.50
2022-10-13T23:47:15.266Z,34.30
2022-10-13T23:50:18.108Z,33.70
2022-10-13T23:53:21.625Z,35.30
2022-10-13T23:56:25.348Z,34.40
2022-10-13T23:59:28.230Z,33.80
